Zhe Pu Tuo 2012 — BKRA5 — position and weather

sailwx.info

Track history (hours):
 
Tides and Currents Weather Stations Pressure Air Temp Water Temp Dewpoint Dewpoint Depression Visibility Wind Speed Wind Dir Waves Ship Positions

Zhe Pu Tuo 2012

Last reported at 2016-Feb-06 08:11 UTC. Time now 2016-Feb-14 14:47 UTC.
Position N 38°58' E 117°48'.
Warning: this ship's position is 8 days out of date.

Length 57 m; draft 3.7 m.

Type: Other ship. MMSI: 412763040.

Date/timePositionNaut miles runAvg speedWind from/ knotsBaromVisibWave heightAir tempDewpointWater temp
2016-Feb-06 08:11N 38°58' E 117°48'4 5.6
2016-Feb-06 07:33N 38°59' E 117°43'0 0.0
2016-Feb-06 06:33N 38°59' E 117°43'0 0.0
2016-Feb-06 05:33N 38°59' E 117°43'0 0.0
2016-Feb-06 04:33N 38°59' E 117°43'0 0.0
2016-Feb-06 03:33N 38°59' E 117°43'0 0.0
2016-Feb-06 02:32N 38°59' E 117°43'0 0.0
2016-Feb-06 01:33N 38°59' E 117°43'0 0.0
2016-Feb-06 00:33N 38°59' E 117°43'0 0.0
2016-Feb-05 23:33N 38°59' E 117°43'0 0.0
2016-Feb-05 22:33N 38°59' E 117°43'0 0.0
2016-Feb-05 21:33N 38°59' E 117°43'0 0.0
2016-Feb-05 20:33N 38°59' E 117°43'0 0.0
2016-Feb-05 19:33N 38°59' E 117°43'0 0.0
2016-Feb-05 18:33N 38°59' E 117°43'0 0.0
2016-Feb-05 17:33N 38°59' E 117°43'0 0.0
2016-Feb-05 16:33N 38°59' E 117°43'0 0.1
2016-Feb-05 15:33N 38°59' E 117°43'  
2016-Jan-30 04:33N 38°57' E 117°54'8 8.5
2016-Jan-30 03:33N 38°59' E 117°44'0 0.4
2016-Jan-30 02:33N 38°59' E 117°43'0 0.0
2016-Jan-30 01:33N 38°59' E 117°43'0 0.0
2016-Jan-30 00:33N 38°59' E 117°43'0 0.0
2016-Jan-29 23:33N 38°59' E 117°43'0 0.0
2016-Jan-29 22:33N 38°59' E 117°43'0 0.0
2016-Jan-29 21:33N 38°59' E 117°43'0 0.0
2016-Jan-29 20:33N 38°59' E 117°43'0 0.0
2016-Jan-29 19:33N 38°59' E 117°43'0 0.0
2016-Jan-29 18:33N 38°59' E 117°43'0 0.0
2016-Jan-29 17:33N 38°59' E 117°43'0 0.0
2016-Jan-29 16:33N 38°59' E 117°43'0 0.0
2016-Jan-29 15:33N 38°59' E 117°43'0 0.0
2016-Jan-29 14:32N 38°59' E 117°43'0 0.0
2016-Jan-29 13:33N 38°59' E 117°43'0 0.0
2016-Jan-29 12:33N 38°59' E 117°43'0 0.0
2016-Jan-29 11:33N 38°59' E 117°43'0 0.0
2016-Jan-29 10:33N 38°59' E 117°43'0 0.0
2016-Jan-29 09:33N 38°59' E 117°43'0 0.0
2016-Jan-29 08:33N 38°59' E 117°43'0 0.0
2016-Jan-29 07:33N 38°59' E 117°43'0 0.0
2016-Jan-29 06:33N 38°59' E 117°43'0 0.0
2016-Jan-29 05:33N 38°59' E 117°43'0 0.0
2016-Jan-29 04:33N 38°59' E 117°43'0 0.5
2016-Jan-29 03:33N 38°59' E 117°44'0 0.0
2016-Jan-29 02:33N 38°59' E 117°44'0 0.5
2016-Jan-29 01:32N 38°59' E 117°43'0 0.0
2016-Jan-29 00:31N 38°59' E 117°43'0 0.0
2016-Jan-28 23:31N 38°59' E 117°43'0 0.0
2016-Jan-28 22:33N 38°59' E 117°43'0 0.0
2016-Jan-28 21:33N 38°59' E 117°43'0 0.1
2016-Jan-28 20:33N 38°59' E 117°43'0 0.0
2016-Jan-28 19:33N 38°59' E 117°43'5 4.6
2016-Jan-28 18:33N 38°58' E 117°49'  
Track history (hours):
 
Tides and Currents Weather Stations Pressure Air Temp Water Temp Dewpoint Dewpoint Depression Visibility Wind Speed Wind Dir Waves Ship Positions

Zhe Pu Tuo 2012

Last reported at 2016-Feb-06 08:11 UTC. Time now 2016-Feb-14 14:47 UTC.
Position N 38°58' E 117°48'.
Warning: this ship's position is 8 days out of date.

Length 57 m; draft 3.7 m.

Type: Other ship. MMSI: 412763040.

Date/timePositionNaut miles runAvg speedWind from/ knotsBaromVisibWave heightAir tempDewpointWater temp
2016-Feb-06 08:11N 38°58' E 117°48'4 5.6
2016-Feb-06 07:33N 38°59' E 117°43'0 0.0
2016-Feb-06 06:33N 38°59' E 117°43'0 0.0
2016-Feb-06 05:33N 38°59' E 117°43'0 0.0
2016-Feb-06 04:33N 38°59' E 117°43'0 0.0
2016-Feb-06 03:33N 38°59' E 117°43'0 0.0
2016-Feb-06 02:32N 38°59' E 117°43'0 0.0
2016-Feb-06 01:33N 38°59' E 117°43'0 0.0
2016-Feb-06 00:33N 38°59' E 117°43'0 0.0
2016-Feb-05 23:33N 38°59' E 117°43'0 0.0
2016-Feb-05 22:33N 38°59' E 117°43'0 0.0
2016-Feb-05 21:33N 38°59' E 117°43'0 0.0
2016-Feb-05 20:33N 38°59' E 117°43'0 0.0
2016-Feb-05 19:33N 38°59' E 117°43'0 0.0
2016-Feb-05 18:33N 38°59' E 117°43'0 0.0
2016-Feb-05 17:33N 38°59' E 117°43'0 0.0
2016-Feb-05 16:33N 38°59' E 117°43'0 0.1
2016-Feb-05 15:33N 38°59' E 117°43'  
2016-Jan-30 04:33N 38°57' E 117°54'8 8.5
2016-Jan-30 03:33N 38°59' E 117°44'0 0.4
2016-Jan-30 02:33N 38°59' E 117°43'0 0.0
2016-Jan-30 01:33N 38°59' E 117°43'0 0.0
2016-Jan-30 00:33N 38°59' E 117°43'0 0.0
2016-Jan-29 23:33N 38°59' E 117°43'0 0.0
2016-Jan-29 22:33N 38°59' E 117°43'0 0.0
2016-Jan-29 21:33N 38°59' E 117°43'0 0.0
2016-Jan-29 20:33N 38°59' E 117°43'0 0.0
2016-Jan-29 19:33N 38°59' E 117°43'0 0.0
2016-Jan-29 18:33N 38°59' E 117°43'0 0.0
2016-Jan-29 17:33N 38°59' E 117°43'0 0.0
2016-Jan-29 16:33N 38°59' E 117°43'0 0.0
2016-Jan-29 15:33N 38°59' E 117°43'0 0.0
2016-Jan-29 14:32N 38°59' E 117°43'0 0.0
2016-Jan-29 13:33N 38°59' E 117°43'0 0.0
2016-Jan-29 12:33N 38°59' E 117°43'0 0.0
2016-Jan-29 11:33N 38°59' E 117°43'0 0.0
2016-Jan-29 10:33N 38°59' E 117°43'0 0.0
2016-Jan-29 09:33N 38°59' E 117°43'0 0.0
2016-Jan-29 08:33N 38°59' E 117°43'0 0.0
2016-Jan-29 07:33N 38°59' E 117°43'0 0.0
2016-Jan-29 06:33N 38°59' E 117°43'0 0.0
2016-Jan-29 05:33N 38°59' E 117°43'0 0.0
2016-Jan-29 04:33N 38°59' E 117°43'0 0.5
2016-Jan-29 03:33N 38°59' E 117°44'0 0.0
2016-Jan-29 02:33N 38°59' E 117°44'0 0.5
2016-Jan-29 01:32N 38°59' E 117°43'0 0.0
2016-Jan-29 00:31N 38°59' E 117°43'0 0.0
2016-Jan-28 23:31N 38°59' E 117°43'0 0.0
2016-Jan-28 22:33N 38°59' E 117°43'0 0.0
2016-Jan-28 21:33N 38°59' E 117°43'0 0.1
2016-Jan-28 20:33N 38°59' E 117°43'0 0.0
2016-Jan-28 19:33N 38°59' E 117°43'5 4.6
2016-Jan-28 18:33N 38°58' E 117°49'  

Dump ship's entire track history